Time;durP1;ratioP1;P1;durP2;ratioP2;P2;SDS_P1;SDS_P2;PMS_P1;PMS_P2;Temp;Humidity;BMP_temperature;BMP_pressure;BME280_temperature;BME280_humidity;BME280_pressure;Samples;Min_cycle;Max_cycle;Signal;HPM_P1;HPM_P2
2022/04/27 00:00:36;;;;;;;9.15;6.00;;;;;;;;;;5094519;28;20031;-77
2022/04/27 00:03:06;;;;;;;10.40;6.22;;;;;;;;;;5094560;28;20025;-79
2022/04/27 00:05:36;;;;;;;7.53;5.20;;;;;;;;;;5093182;28;20028;-76
2022/04/27 00:08:05;;;;;;;9.45;5.32;;;;;;;;;;5093208;28;20484;-74
2022/04/27 00:10:33;;;;;;;7.90;4.85;;;;;;;;;;5094401;28;20027;-77
2022/04/27 00:13:02;;;;;;;7.63;5.05;;;;;;;;;;5094300;28;20032;-77
2022/04/27 00:15:32;;;;;;;8.20;4.93;;;;;;;;;;5094035;28;20521;-76
2022/04/27 00:18:00;;;;;;;7.82;4.82;;;;;;;;;;5093322;28;20020;-76
2022/04/27 00:20:27;;;;;;;7.15;4.40;;;;;;;;;;5094917;28;20016;-77
2022/04/27 00:22:57;;;;;;;10.07;4.63;;;;;;;;;;5094614;28;20087;-75
2022/04/27 00:25:25;;;;;;;10.02;5.80;;;;;;;;;;5093432;28;20028;-76
2022/04/27 00:27:52;;;;;;;8.63;5.30;;;;;;;;;;5076428;28;20035;-76
2022/04/27 00:30:20;;;;;;;12.18;7.00;;;;;;;;;;5093108;28;20032;-77
2022/04/27 00:32:47;;;;;;;14.77;6.72;;;;;;;;;;5092712;28;20073;-75
2022/04/27 00:35:14;;;;;;;10.13;5.60;;;;;;;;;;5093946;28;20047;-75
2022/04/27 00:37:48;;;;;;;13.13;6.60;;;;;;;;;;5094095;28;20537;-75
2022/04/27 00:40:28;;;;;;;11.48;6.05;;;;;;;;;;5092628;28;20039;-75
2022/04/27 00:42:55;;;;;;;;;;;;;;;;;;5093147;28;20020;-75
2022/04/27 00:45:24;;;;;;;8.18;5.88;;;;;;;;;;5094138;28;19954;-74
2022/04/27 00:47:53;;;;;;;15.77;8.65;;;;;;;;;;5092407;28;20039;-74
2022/04/27 00:50:20;;;;;;;14.60;8.40;;;;;;;;;;5093853;28;20031;-74
2022/04/27 00:52:53;;;;;;;16.35;8.82;;;;;;;;;;5094131;28;20039;-73
2022/04/27 00:55:20;;;;;;;11.68;7.93;;;;;;;;;;5093772;28;20052;-74
2022/04/27 00:57:52;;;;;;;14.18;9.23;;;;;;;;;;5093770;28;20028;-74
2022/04/27 01:00:19;;;;;;;16.38;9.20;;;;;;;;;;5091985;28;20024;-74
2022/04/27 01:02:48;;;;;;;12.93;9.35;;;;;;;;;;5092400;28;20028;-75
2022/04/27 01:05:16;;;;;;;14.80;10.68;;;;;;;;;;5092323;28;20069;-75
2022/04/27 01:07:44;;;;;;;15.35;10.02;;;;;;;;;;5093600;28;20047;-76
2022/04/27 01:10:12;;;;;;;17.17;10.25;;;;;;;;;;5092261;28;20028;-75
2022/04/27 01:12:39;;;;;;;17.30;9.68;;;;;;;;;;5093406;28;20085;-75
2022/04/27 01:15:10;;;;;;;;;;;;;;;;;;5093839;28;20052;-74
2022/04/27 01:17:38;;;;;;;12.93;9.15;;;;;;;;;;5093528;28;19911;-74
2022/04/27 01:20:06;;;;;;;11.90;9.45;;;;;;;;;;5093603;28;20560;-75
2022/04/27 01:22:33;;;;;;;11.38;9.40;;;;;;;;;;5093519;28;20480;-76
2022/04/27 01:25:01;;;;;;;13.20;9.20;;;;;;;;;;5092852;28;20080;-77
2022/04/27 01:27:28;;;;;;;12.95;9.13;;;;;;;;;;5092416;28;20055;-75
2022/04/27 01:29:56;;;;;;;13.48;10.00;;;;;;;;;;5094174;28;20028;-75
2022/04/27 01:32:24;;;;;;;13.93;9.68;;;;;;;;;;5093188;28;20027;-75
2022/04/27 01:34:51;;;;;;;10.45;8.82;;;;;;;;;;5093484;28;20415;-75
2022/04/27 01:40:08;;;;;;;12.65;8.65;;;;;;;;;;5092521;28;20039;-77
2022/04/27 01:42:36;;;;;;;9.95;8.65;;;;;;;;;;5093241;28;20016;-76
2022/04/27 01:45:04;;;;;;;12.30;8.05;;;;;;;;;;5092989;28;20024;-76
2022/04/27 01:47:31;;;;;;;8.85;7.97;;;;;;;;;;5092838;28;20099;-77
2022/04/27 01:49:59;;;;;;;12.55;8.65;;;;;;;;;;5090798;28;20028;-77
2022/04/27 01:55:12;;;;;;;12.55;9.02;;;;;;;;;;5092757;28;20085;-77
2022/04/27 01:57:39;;;;;;;11.10;8.00;;;;;;;;;;5092742;28;20090;-75
2022/04/27 02:00:08;;;;;;;11.40;9.00;;;;;;;;;;5092713;28;20392;-76
2022/04/27 02:02:36;;;;;;;11.00;8.25;;;;;;;;;;5091408;28;20077;-76
2022/04/27 02:05:04;;;;;;;12.15;9.43;;;;;;;;;;5092658;28;20034;-77
2022/04/27 02:07:33;;;;;;;12.15;8.80;;;;;;;;;;5091408;28;20024;-77
2022/04/27 02:10:00;;;;;;;13.13;9.73;;;;;;;;;;5092500;28;20027;-77
2022/04/27 02:12:28;;;;;;;10.32;8.48;;;;;;;;;;5092639;28;20028;-76
2022/04/27 02:14:55;;;;;;;12.38;9.00;;;;;;;;;;5092553;28;20563;-76
2022/04/27 02:17:24;;;;;;;11.98;9.63;;;;;;;;;;5091464;28;20077;-76
2022/04/27 02:19:53;;;;;;;12.00;9.65;;;;;;;;;;5091221;28;20054;-77
2022/04/27 02:22:20;;;;;;;15.60;10.43;;;;;;;;;;5092716;28;20020;-77
2022/04/27 02:24:48;;;;;;;13.90;10.70;;;;;;;;;;5091167;28;20040;-77
2022/04/27 02:27:16;;;;;;;14.13;12.32;;;;;;;;;;5092556;28;20028;-76
2022/04/27 02:29:56;;;;;;;16.88;13.55;;;;;;;;;;5092708;28;20173;-76
2022/04/27 02:32:25;;;;;;;15.07;12.13;;;;;;;;;;5092238;28;20158;-76
2022/04/27 02:34:52;;;;;;;15.70;13.18;;;;;;;;;;5092977;28;20273;-76
2022/04/27 02:37:19;;;;;;;18.13;13.82;;;;;;;;;;5093083;28;20430;-77
2022/04/27 02:39:47;;;;;;;18.23;13.52;;;;;;;;;;5093969;28;20024;-77
2022/04/27 02:42:16;;;;;;;14.48;11.93;;;;;;;;;;5096424;28;20043;-76
2022/04/27 02:44:44;;;;;;;14.25;11.70;;;;;;;;;;5095321;28;20496;-76
2022/04/27 02:47:13;;;;;;;13.30;10.60;;;;;;;;;;5078288;28;20028;-77
2022/04/27 02:52:25;;;;;;;14.35;10.02;;;;;;;;;;5096284;28;20035;-77
2022/04/27 02:54:54;;;;;;;11.70;9.40;;;;;;;;;;5094918;28;20090;-77
2022/04/27 02:57:21;;;;;;;13.20;9.63;;;;;;;;;;5096068;28;20012;-76
2022/04/27 02:59:49;;;;;;;13.00;9.82;;;;;;;;;;5096439;28;20020;-77
2022/04/27 03:02:17;;;;;;;10.52;8.98;;;;;;;;;;5096350;28;20020;-77
2022/04/27 03:04:45;;;;;;;10.30;9.02;;;;;;;;;;5094743;28;20536;-78
2022/04/27 03:07:12;;;;;;;11.25;9.32;;;;;;;;;;5095971;28;20020;-78
2022/04/27 03:09:39;;;;;;;9.57;8.48;;;;;;;;;;5096055;28;20028;-78
2022/04/27 03:12:07;;;;;;;10.90;8.77;;;;;;;;;;5095896;28;20077;-78
2022/04/27 03:14:34;;;;;;;14.25;9.48;;;;;;;;;;5094590;28;20098;-78
2022/04/27 03:17:01;;;;;;;11.82;10.07;;;;;;;;;;5095812;28;20141;-78
2022/04/27 03:19:28;;;;;;;13.02;10.15;;;;;;;;;;5094484;28;20507;-78
2022/04/27 03:21:55;;;;;;;11.00;9.80;;;;;;;;;;5095692;28;20016;-78
2022/04/27 03:24:23;;;;;;;13.07;9.95;;;;;;;;;;5095706;28;20392;-78
2022/04/27 03:26:50;;;;;;;12.15;9.68;;;;;;;;;;5095592;28;20421;-78
2022/04/27 03:29:17;;;;;;;11.98;9.25;;;;;;;;;;5094381;28;20024;-78
2022/04/27 03:31:44;;;;;;;12.32;9.65;;;;;;;;;;5095850;28;20020;-78
2022/04/27 03:34:11;;;;;;;14.20;11.45;;;;;;;;;;5094145;28;20396;-78
2022/04/27 03:36:38;;;;;;;14.35;11.38;;;;;;;;;;5095454;28;20366;-79
2022/04/27 03:39:06;;;;;;;15.07;10.65;;;;;;;;;;5094165;28;20047;-79
2022/04/27 03:41:33;;;;;;;15.32;10.43;;;;;;;;;;5095388;28;20024;-78
2022/04/27 03:44:00;;;;;;;15.55;11.55;;;;;;;;;;5094036;28;20032;-78
2022/04/27 03:46:27;;;;;;;13.05;10.05;;;;;;;;;;5095341;28;20076;-78
2022/04/27 03:48:55;;;;;;;17.27;11.05;;;;;;;;;;5094711;28;20453;-78
2022/04/27 03:51:22;;;;;;;12.95;10.20;;;;;;;;;;5096378;28;20024;-78
2022/04/27 03:53:50;;;;;;;13.13;10.27;;;;;;;;;;5095181;28;20050;-77
2022/04/27 03:56:18;;;;;;;13.15;10.07;;;;;;;;;;5093792;28;20027;-77
2022/04/27 03:58:45;;;;;;;15.57;10.90;;;;;;;;;;5094978;28;20016;-76
2022/04/27 04:01:12;;;;;;;12.50;9.48;;;;;;;;;;5093725;28;20039;-76
2022/04/27 04:03:39;;;;;;;13.68;10.38;;;;;;;;;;5093518;28;20024;-75
2022/04/27 04:06:06;;;;;;;13.07;9.55;;;;;;;;;;5094865;28;20070;-77
2022/04/27 04:08:33;;;;;;;18.08;10.52;;;;;;;;;;5094321;28;20488;-80
2022/04/27 04:11:01;;;;;;;13.07;10.75;;;;;;;;;;5095015;28;20046;-78
2022/04/27 04:13:28;;;;;;;12.27;9.57;;;;;;;;;;5094805;28;20012;-78
2022/04/27 04:15:55;;;;;;;13.45;9.30;;;;;;;;;;5094746;28;20020;-78
2022/04/27 04:18:22;;;;;;;13.40;8.48;;;;;;;;;;5094689;28;20027;-77
2022/04/27 04:20:49;;;;;;;13.25;9.40;;;;;;;;;;5094658;28;20021;-78
2022/04/27 04:23:17;;;;;;;14.10;9.55;;;;;;;;;;5094443;28;20081;-78
2022/04/27 04:28:32;;;;;;;15.50;11.30;;;;;;;;;;5094463;28;20565;-78
2022/04/27 04:31:00;;;;;;;19.38;12.18;;;;;;;;;;5094425;28;20069;-79
2022/04/27 04:33:28;;;;;;;14.98;10.73;;;;;;;;;;5094227;28;20051;-78
2022/04/27 04:35:56;;;;;;;15.70;10.88;;;;;;;;;;5092923;28;20031;-79
2022/04/27 04:38:23;;;;;;;13.65;8.68;;;;;;;;;;5094464;28;20469;-78
2022/04/27 04:40:52;;;;;;;9.55;6.18;;;;;;;;;;5092880;28;20035;-78
2022/04/27 04:43:20;;;;;;;14.13;8.30;;;;;;;;;;5092891;28;20487;-77
2022/04/27 04:45:47;;;;;;;14.82;6.50;;;;;;;;;;5092821;28;20024;-78
2022/04/27 04:48:14;;;;;;;9.65;5.75;;;;;;;;;;5093829;28;20400;-78
2022/04/27 04:50:42;;;;;;;9.82;5.90;;;;;;;;;;5092590;28;20021;-78
2022/04/27 04:53:09;;;;;;;14.57;6.95;;;;;;;;;;5093932;28;20016;-78
2022/04/27 04:55:36;;;;;;;12.70;6.03;;;;;;;;;;5093574;28;20024;-78
2022/04/27 04:58:06;;;;;;;10.15;7.05;;;;;;;;;;5075959;28;20386;-78
2022/04/27 05:00:33;;;;;;;12.38;7.00;;;;;;;;;;5092041;28;20023;-78
2022/04/27 05:03:01;;;;;;;9.70;5.90;;;;;;;;;;5093065;28;20028;-77
2022/04/27 05:05:28;;;;;;;9.95;5.30;;;;;;;;;;5093541;28;20047;-78
2022/04/27 05:07:55;;;;;;;12.20;6.00;;;;;;;;;;5093584;28;20019;-77
2022/04/27 05:10:22;;;;;;;10.82;4.53;;;;;;;;;;5093564;28;20031;-78
2022/04/27 05:12:49;;;;;;;9.80;4.03;;;;;;;;;;5093523;28;20032;-77
2022/04/27 05:15:17;;;;;;;8.63;3.03;;;;;;;;;;5091998;28;20055;-78
2022/04/27 05:17:44;;;;;;;8.27;3.30;;;;;;;;;;5093468;28;20049;-78
2022/04/27 05:20:11;;;;;;;7.53;2.67;;;;;;;;;;5091860;28;20021;-78
2022/04/27 05:22:38;;;;;;;6.80;2.40;;;;;;;;;;5093405;28;20031;-78
2022/04/27 05:25:07;;;;;;;11.82;2.72;;;;;;;;;;5091911;28;20035;-78
2022/04/27 05:27:34;;;;;;;9.95;2.20;;;;;;;;;;5093210;28;20023;-78
2022/04/27 05:32:47;;;;;;;7.88;2.00;;;;;;;;;;5093239;28;20036;-78
2022/04/27 05:35:14;;;;;;;8.40;2.10;;;;;;;;;;5091693;28;20024;-78
2022/04/27 05:37:41;;;;;;;15.35;5.63;;;;;;;;;;5091748;28;20404;-78
2022/04/27 05:40:09;;;;;;;9.65;5.57;;;;;;;;;;5093079;28;20024;-78
2022/04/27 05:42:37;;;;;;;19.88;10.07;;;;;;;;;;5093064;28;20043;-78
2022/04/27 05:45:04;;;;;;;15.15;9.88;;;;;;;;;;5091675;28;20024;-79
2022/04/27 05:47:31;;;;;;;15.60;11.90;;;;;;;;;;5092739;28;20368;-78
2022/04/27 05:49:59;;;;;;;13.43;11.98;;;;;;;;;;5092955;28;20043;-78
2022/04/27 05:52:26;;;;;;;15.45;12.30;;;;;;;;;;5092948;28;20023;-78
2022/04/27 05:54:53;;;;;;;19.00;14.25;;;;;;;;;;5092818;28;20480;-78
2022/04/27 05:57:20;;;;;;;18.95;14.30;;;;;;;;;;5091571;28;20392;-76
2022/04/27 05:59:47;;;;;;;14.57;13.05;;;;;;;;;;5091518;28;20016;-76
2022/04/27 06:02:15;;;;;;;16.27;12.13;;;;;;;;;;5092726;28;20025;-75
2022/04/27 06:04:42;;;;;;;15.43;12.05;;;;;;;;;;5091369;28;20074;-76
2022/04/27 06:07:09;;;;;;;14.75;11.27;;;;;;;;;;5092695;28;20024;-76
2022/04/27 06:09:36;;;;;;;14.95;11.93;;;;;;;;;;5091420;28;20043;-76
2022/04/27 06:12:05;;;;;;;16.48;12.98;;;;;;;;;;5091367;28;20399;-75
2022/04/27 06:14:32;;;;;;;17.80;14.18;;;;;;;;;;5095524;28;20028;-75
2022/04/27 06:16:59;;;;;;;17.58;12.57;;;;;;;;;;5095450;28;20074;-75
2022/04/27 06:19:26;;;;;;;18.05;13.35;;;;;;;;;;5096848;28;20020;-75
2022/04/27 06:21:53;;;;;;;16.90;12.68;;;;;;;;;;5096696;28;20096;-76
2022/04/27 06:24:21;;;;;;;14.52;12.45;;;;;;;;;;5096805;28;20476;-76
2022/04/27 06:26:48;;;;;;;15.93;12.20;;;;;;;;;;5096687;28;20554;-76
2022/04/27 06:29:15;;;;;;;17.45;12.52;;;;;;;;;;5095361;28;20020;-76
2022/04/27 06:31:44;;;;;;;14.82;12.10;;;;;;;;;;5096495;28;20031;-76
2022/04/27 06:34:11;;;;;;;16.45;14.48;;;;;;;;;;5096383;28;20058;-76
2022/04/27 06:36:39;;;;;;;18.88;13.88;;;;;;;;;;5096458;28;20094;-76
2022/04/27 06:39:08;;;;;;;21.45;15.57;;;;;;;;;;5095217;28;20404;-77
2022/04/27 06:41:35;;;;;;;19.55;15.32;;;;;;;;;;5095073;28;20052;-77
2022/04/27 06:44:02;;;;;;;19.95;15.45;;;;;;;;;;5094994;28;20028;-77
2022/04/27 06:46:29;;;;;;;19.17;14.68;;;;;;;;;;5094944;28;20101;-76
2022/04/27 06:48:56;;;;;;;22.17;14.88;;;;;;;;;;5094677;28;20438;-77
2022/04/27 06:51:23;;;;;;;19.02;14.38;;;;;;;;;;5094671;28;20020;-76
2022/04/27 06:53:52;;;;;;;17.80;14.23;;;;;;;;;;5096028;28;20031;-76
2022/04/27 06:56:19;;;;;;;20.27;14.27;;;;;;;;;;5094792;28;20035;-76
2022/04/27 06:58:46;;;;;;;21.05;14.73;;;;;;;;;;5094497;28;20048;-76
2022/04/27 07:01:14;;;;;;;17.98;14.70;;;;;;;;;;5096142;28;20461;-76
2022/04/27 07:03:43;;;;;;;17.15;15.05;;;;;;;;;;5095748;28;20068;-76
2022/04/27 07:06:10;;;;;;;19.30;14.50;;;;;;;;;;5095879;28;20078;-76
2022/04/27 07:08:38;;;;;;;16.08;13.73;;;;;;;;;;5094384;28;20028;-76
2022/04/27 07:11:05;;;;;;;15.30;13.70;;;;;;;;;;5095828;28;20386;-76
2022/04/27 07:13:32;;;;;;;17.40;13.98;;;;;;;;;;5094395;28;20031;-76
2022/04/27 07:16:03;;;;;;;17.05;14.20;;;;;;;;;;5094308;28;20081;-76
2022/04/27 07:18:30;;;;;;;21.02;14.57;;;;;;;;;;5094255;28;20020;-77
2022/04/27 07:20:58;;;;;;;18.60;15.43;;;;;;;;;;5094269;28;20055;-76
2022/04/27 07:23:25;;;;;;;19.33;15.05;;;;;;;;;;5095347;28;20028;-76
2022/04/27 07:25:52;;;;;;;24.65;16.35;;;;;;;;;;5093104;28;20031;-77
2022/04/27 07:28:19;;;;;;;21.67;16.75;;;;;;;;;;5094179;28;20055;-76
2022/04/27 07:30:46;;;;;;;20.73;16.92;;;;;;;;;;5094238;28;20052;-76
2022/04/27 07:33:14;;;;;;;21.17;17.65;;;;;;;;;;5094042;28;20047;-76
2022/04/27 07:35:41;;;;;;;19.80;17.67;;;;;;;;;;5095459;28;20472;-78
2022/04/27 07:38:08;;;;;;;23.10;18.85;;;;;;;;;;5093949;28;20016;-77
2022/04/27 07:40:35;;;;;;;25.60;18.33;;;;;;;;;;5094006;28;20027;-77
2022/04/27 07:43:02;;;;;;;22.35;17.55;;;;;;;;;;5095191;28;20031;-76
2022/04/27 07:45:29;;;;;;;23.38;17.77;;;;;;;;;;5095189;28;20020;-77
2022/04/27 07:47:56;;;;;;;23.40;16.98;;;;;;;;;;5095093;28;20040;-77
2022/04/27 07:50:24;;;;;;;19.77;16.55;;;;;;;;;;5095122;28;20099;-77
2022/04/27 07:52:51;;;;;;;19.65;16.58;;;;;;;;;;5095060;28;20055;-76
2022/04/27 07:55:18;;;;;;;20.70;16.63;;;;;;;;;;5094994;28;20429;-77
2022/04/27 07:57:45;;;;;;;22.33;17.00;;;;;;;;;;5095026;28;20044;-77
2022/04/27 08:00:13;;;;;;;21.17;18.55;;;;;;;;;;5094821;28;20016;-77
2022/04/27 08:02:41;;;;;;;21.85;17.58;;;;;;;;;;5094950;28;20022;-77
2022/04/27 08:05:08;;;;;;;20.85;16.38;;;;;;;;;;5094797;28;20104;-77
2022/04/27 08:07:36;;;;;;;19.55;16.35;;;;;;;;;;5093557;28;20024;-77
2022/04/27 08:10:11;;;;;;;21.95;17.58;;;;;;;;;;5093493;28;20024;-77
2022/04/27 08:12:39;;;;;;;22.25;17.05;;;;;;;;;;5094784;28;20028;-77
2022/04/27 08:15:07;;;;;;;21.00;16.98;;;;;;;;;;5094716;28;20428;-78
2022/04/27 08:17:34;;;;;;;19.90;16.67;;;;;;;;;;5093436;28;20103;-77
2022/04/27 08:22:51;;;;;;;19.83;16.93;;;;;;;;;;5074594;28;20024;-76
2022/04/27 08:25:18;;;;;;;18.92;16.13;;;;;;;;;;5094473;28;20253;-75
2022/04/27 08:27:45;;;;;;;20.33;17.33;;;;;;;;;;5094529;28;20028;-77
2022/04/27 08:30:12;;;;;;;18.90;16.10;;;;;;;;;;5094397;28;20050;-76
2022/04/27 08:32:41;;;;;;;18.02;15.75;;;;;;;;;;5094448;28;20031;-77
2022/04/27 08:35:08;;;;;;;18.20;15.80;;;;;;;;;;5094237;28;20112;-78
2022/04/27 08:37:36;;;;;;;19.45;17.27;;;;;;;;;;5092943;28;20031;-78
2022/04/27 08:40:04;;;;;;;23.30;18.80;;;;;;;;;;5092858;28;20024;-76
2022/04/27 08:42:31;;;;;;;19.85;17.77;;;;;;;;;;5094182;28;20024;-78
2022/04/27 08:45:00;;;;;;;23.73;20.33;;;;;;;;;;5094175;28;20031;-76
2022/04/27 08:47:28;;;;;;;23.98;21.33;;;;;;;;;;5092574;28;20110;-77
2022/04/27 08:49:56;;;;;;;20.95;18.67;;;;;;;;;;5093944;28;20027;-79
2022/04/27 08:52:24;;;;;;;23.10;19.80;;;;;;;;;;5093992;28;20031;-78
2022/04/27 08:54:51;;;;;;;23.85;20.13;;;;;;;;;;5093942;28;20028;-78
2022/04/27 08:57:18;;;;;;;23.77;19.88;;;;;;;;;;5093976;28;20016;-78
2022/04/27 08:59:46;;;;;;;23.77;20.33;;;;;;;;;;5093752;28;20069;-78
2022/04/27 09:02:29;;;;;;;22.30;19.88;;;;;;;;;;5093742;28;20361;-76
2022/04/27 09:05:09;;;;;;;28.02;20.02;;;;;;;;;;5094055;28;20039;-76
2022/04/27 09:07:51;;;;;;;23.52;20.60;;;;;;;;;;5093796;28;20385;-75
2022/04/27 09:10:23;;;;;;;24.33;21.42;;;;;;;;;;5092404;28;20101;-75
2022/04/27 09:12:51;;;;;;;23.50;19.50;;;;;;;;;;5093689;28;20508;-75
2022/04/27 09:15:19;;;;;;;24.17;21.15;;;;;;;;;;5093477;28;20056;-76
2022/04/27 09:20:47;;;;;;;22.55;20.17;;;;;;;;;;5093773;28;20520;-77
2022/04/27 09:23:21;;;;;;;27.50;21.83;;;;;;;;;;5093487;28;20023;-76
2022/04/27 09:25:49;;;;;;;23.20;20.70;;;;;;;;;;5093475;28;20248;-78
2022/04/27 09:28:16;;;;;;;24.05;21.45;;;;;;;;;;5093320;28;20023;-78
2022/04/27 09:30:44;;;;;;;24.63;20.17;;;;;;;;;;5092049;28;20070;-78
2022/04/27 09:33:11;;;;;;;21.63;19.27;;;;;;;;;;5093312;28;20069;-76
2022/04/27 09:35:39;;;;;;;21.23;18.65;;;;;;;;;;5093216;28;20484;-77
2022/04/27 09:38:15;;;;;;;22.88;20.42;;;;;;;;;;5093304;28;20043;-78
2022/04/27 09:40:54;;;;;;;22.20;20.05;;;;;;;;;;5093528;28;20020;-77
2022/04/27 09:43:41;;;;;;;23.15;20.45;;;;;;;;;;5091799;28;20020;-77
2022/04/27 09:46:24;;;;;;;24.25;20.75;;;;;;;;;;5093228;28;20024;-75
2022/04/27 09:49:04;;;;;;;24.88;21.77;;;;;;;;;;5092497;28;20048;-75
2022/04/27 09:51:31;;;;;;;26.88;23.02;;;;;;;;;;5093078;28;20020;-75
2022/04/27 09:54:00;;;;;;;25.70;23.08;;;;;;;;;;5093008;28;20511;-77
2022/04/27 09:56:31;;;;;;;23.52;21.10;;;;;;;;;;5093079;28;20020;-78
2022/04/27 09:58:59;;;;;;;;;;;;;;;;;;5093328;28;20012;-78
2022/04/27 10:01:27;;;;;;;25.42;22.83;;;;;;;;;;5092790;28;19931;-78
2022/04/27 10:03:57;;;;;;;23.27;20.77;;;;;;;;;;5091450;28;20096;-80
2022/04/27 10:06:25;;;;;;;22.75;20.38;;;;;;;;;;5092944;28;20016;-80
2022/04/27 10:08:53;;;;;;;22.35;19.65;;;;;;;;;;5092927;28;20050;-81
2022/04/27 10:11:20;;;;;;;21.50;19.02;;;;;;;;;;5091576;28;20028;-80
2022/04/27 10:13:48;;;;;;;21.77;19.52;;;;;;;;;;5091569;28;20392;-79
2022/04/27 10:16:17;;;;;;;23.42;20.92;;;;;;;;;;5091407;28;20025;-80
2022/04/27 10:18:44;;;;;;;21.15;18.92;;;;;;;;;;5091475;28;20021;-80
2022/04/27 10:21:12;;;;;;;22.33;20.02;;;;;;;;;;5092753;28;20056;-81
2022/04/27 10:23:48;;;;;;;23.55;21.08;;;;;;;;;;5092819;28;20020;-78
2022/04/27 10:26:20;;;;;;;25.13;22.73;;;;;;;;;;5092744;28;20024;-78
2022/04/27 10:28:57;;;;;;;26.65;23.17;;;;;;;;;;5092702;28;20038;-79
2022/04/27 10:31:48;;;;;;;25.33;22.85;;;;;;;;;;5092621;28;20358;-80
2022/04/27 10:34:21;;;;;;;24.58;22.13;;;;;;;;;;5092701;28;20027;-78
2022/04/27 10:36:49;;;;;;;24.67;22.08;;;;;;;;;;5092551;28;20017;-78
2022/04/27 10:39:18;;;;;;;24.58;22.05;;;;;;;;;;5091267;28;20431;-77
2022/04/27 10:41:55;;;;;;;25.75;23.13;;;;;;;;;;5091296;28;20024;-78
2022/04/27 10:44:23;;;;;;;25.55;22.83;;;;;;;;;;5091233;28;20093;-78
2022/04/27 10:46:50;;;;;;;27.08;23.70;;;;;;;;;;5092464;28;20048;-77
2022/04/27 10:49:24;;;;;;;25.35;22.45;;;;;;;;;;5092313;28;20105;-78
2022/04/27 10:52:11;;;;;;;23.58;21.10;;;;;;;;;;5091130;28;20112;-77
2022/04/27 10:54:39;;;;;;;26.73;23.30;;;;;;;;;;5092323;28;20024;-77
2022/04/27 10:57:19;;;;;;;24.40;21.95;;;;;;;;;;5091146;28;20020;-76
2022/04/27 10:59:51;;;;;;;25.05;22.42;;;;;;;;;;5093391;28;20020;-78
2022/04/27 11:02:34;;;;;;;25.38;22.73;;;;;;;;;;5094875;28;20020;-78
2022/04/27 11:05:05;;;;;;;25.60;23.17;;;;;;;;;;5096078;28;20056;-78
2022/04/27 11:07:36;;;;;;;26.90;23.17;;;;;;;;;;5094758;28;20046;-77
2022/04/27 11:10:21;;;;;;;27.95;25.05;;;;;;;;;;5094741;28;20527;-77
2022/04/27 11:12:50;;;;;;;25.45;22.83;;;;;;;;;;5095882;28;20052;-77
2022/04/27 11:15:20;;;;;;;24.30;21.73;;;;;;;;;;5094553;28;20024;-79
2022/04/27 11:17:52;;;;;;;23.08;20.67;;;;;;;;;;5094596;28;20066;-78
2022/04/27 11:20:25;;;;;;;23.60;20.95;;;;;;;;;;5095828;28;20027;-77
2022/04/27 11:22:52;;;;;;;22.15;19.98;;;;;;;;;;5095716;28;20031;-79
2022/04/27 11:25:33;;;;;;;19.73;17.60;;;;;;;;;;5095765;28;20384;-78
2022/04/27 11:28:05;;;;;;;17.65;16.05;;;;;;;;;;5094400;28;20027;-78
2022/04/27 11:30:32;;;;;;;17.38;15.70;;;;;;;;;;5094319;28;20028;-78
2022/04/27 11:33:01;;;;;;;18.85;16.85;;;;;;;;;;5094317;28;20028;-77
2022/04/27 11:35:49;;;;;;;18.15;16.35;;;;;;;;;;5095548;28;20088;-78
2022/04/27 11:38:20;;;;;;;21.80;18.08;;;;;;;;;;5095471;28;20095;-77
2022/04/27 11:40:49;;;;;;;18.02;16.15;;;;;;;;;;5095492;28;20016;-79
2022/04/27 11:43:27;;;;;;;20.15;18.17;;;;;;;;;;5095385;28;20072;-78
2022/04/27 11:45:57;;;;;;;19.10;17.17;;;;;;;;;;5095378;28;20032;-79
2022/04/27 11:48:29;;;;;;;19.55;17.55;;;;;;;;;;5095218;28;20501;-79
2022/04/27 11:50:59;;;;;;;17.50;15.73;;;;;;;;;;5095217;28;20020;-79
2022/04/27 11:53:26;;;;;;;18.75;16.40;;;;;;;;;;5093691;28;20028;-79
2022/04/27 11:55:54;;;;;;;17.50;15.73;;;;;;;;;;5094946;28;20051;-78
2022/04/27 11:58:25;;;;;;;18.02;14.90;;;;;;;;;;5093753;28;20020;-77
2022/04/27 12:00:58;;;;;;;14.13;12.73;;;;;;;;;;5094957;28;20065;-77
2022/04/27 12:03:32;;;;;;;13.40;12.00;;;;;;;;;;5094977;28;20035;-77
2022/04/27 12:05:59;;;;;;;14.40;12.57;;;;;;;;;;5095345;28;20030;-76
2022/04/27 12:08:28;;;;;;;14.40;12.05;;;;;;;;;;5095124;28;20127;-78
2022/04/27 12:10:55;;;;;;;12.10;10.90;;;;;;;;;;5093383;28;20554;-77
2022/04/27 12:13:24;;;;;;;11.38;10.18;;;;;;;;;;5095049;28;20016;-77
2022/04/27 12:15:52;;;;;;;10.80;9.77;;;;;;;;;;5094456;28;20060;-77
2022/04/27 12:18:27;;;;;;;11.35;10.23;;;;;;;;;;5094185;28;20392;-77
2022/04/27 12:20:58;;;;;;;11.60;10.45;;;;;;;;;;5096266;28;20511;-78
2022/04/27 12:23:45;;;;;;;10.35;9.38;;;;;;;;;;5095767;28;20016;-77
2022/04/27 12:26:12;;;;;;;12.98;11.57;;;;;;;;;;5095484;28;20031;-78
2022/04/27 12:28:47;;;;;;;12.23;11.00;;;;;;;;;;5093772;28;20024;-78
2022/04/27 12:31:16;;;;;;;12.07;10.82;;;;;;;;;;5097839;28;20027;-78
2022/04/27 12:33:45;;;;;;;12.90;11.60;;;;;;;;;;5096724;28;20020;-78
2022/04/27 12:38:59;;;;;;;12.40;11.30;;;;;;;;;;5096302;28;20561;-78
2022/04/27 12:41:30;;;;;;;11.90;10.73;;;;;;;;;;5092793;28;20554;-77
2022/04/27 12:44:05;;;;;;;12.55;11.20;;;;;;;;;;5093301;28;20069;-78
2022/04/27 12:46:32;;;;;;;12.73;11.45;;;;;;;;;;5093819;28;20016;-79
2022/04/27 12:49:04;;;;;;;15.18;12.38;;;;;;;;;;5093098;28;20048;-76
2022/04/27 12:51:35;;;;;;;13.48;12.10;;;;;;;;;;5094081;28;20095;-78
2022/04/27 12:54:06;;;;;;;12.40;11.20;;;;;;;;;;5092680;28;20031;-79
2022/04/27 12:56:32;;;;;;;;;;;;;;;;;;5092960;28;20030;-77
2022/04/27 12:59:07;;;;;;;12.93;11.50;;;;;;;;;;5092474;28;20037;-77
2022/04/27 13:01:35;;;;;;;13.90;12.27;;;;;;;;;;5093806;28;20042;-79
2022/04/27 13:04:02;;;;;;;13.93;12.48;;;;;;;;;;5093716;28;20030;-78
2022/04/27 13:06:32;;;;;;;15.05;13.00;;;;;;;;;;5093842;28;20419;-77
2022/04/27 13:11:55;;;;;;;14.32;12.82;;;;;;;;;;5093958;28;20026;-77
2022/04/27 13:14:24;;;;;;;15.43;13.77;;;;;;;;;;5093651;28;20017;-79
2022/04/27 13:16:51;;;;;;;13.95;12.65;;;;;;;;;;5092289;28;20109;-78
2022/04/27 13:19:18;;;;;;;13.32;12.00;;;;;;;;;;5093483;28;20472;-78
2022/04/27 13:21:45;;;;;;;14.98;11.85;;;;;;;;;;5091795;28;20016;-78
2022/04/27 13:24:12;;;;;;;12.25;11.02;;;;;;;;;;5093119;28;20016;-78
2022/04/27 13:26:39;;;;;;;13.40;12.05;;;;;;;;;;5093424;28;20012;-79
2022/04/27 13:29:06;;;;;;;13.10;11.30;;;;;;;;;;5092004;28;20103;-78
2022/04/27 13:31:34;;;;;;;12.70;11.25;;;;;;;;;;5093427;28;20384;-78
2022/04/27 13:34:01;;;;;;;13.43;12.05;;;;;;;;;;5093178;28;20073;-79
2022/04/27 13:36:29;;;;;;;13.25;11.65;;;;;;;;;;5093234;28;20084;-78
2022/04/27 13:38:56;;;;;;;13.20;11.88;;;;;;;;;;5093236;28;20051;-79
2022/04/27 13:41:23;;;;;;;12.68;11.32;;;;;;;;;;5091938;28;20473;-78
2022/04/27 13:43:51;;;;;;;12.90;11.25;;;;;;;;;;5093162;28;20024;-78
2022/04/27 13:46:19;;;;;;;11.50;10.32;;;;;;;;;;5093141;28;20016;-79
2022/04/27 13:48:46;;;;;;;12.40;10.70;;;;;;;;;;5092998;28;20048;-78
2022/04/27 13:51:17;;;;;;;12.15;10.85;;;;;;;;;;5091733;28;20032;-78
2022/04/27 13:53:44;;;;;;;11.98;10.88;;;;;;;;;;5093228;28;20551;-78
2022/04/27 13:56:12;;;;;;;13.43;11.43;;;;;;;;;;5092933;28;20064;-78
2022/04/27 13:58:39;;;;;;;13.82;11.93;;;;;;;;;;5093022;28;20061;-78
2022/04/27 14:01:07;;;;;;;11.63;10.52;;;;;;;;;;5092932;28;20023;-78
2022/04/27 14:03:34;;;;;;;13.10;10.93;;;;;;;;;;5092948;28;20016;-78
2022/04/27 14:06:01;;;;;;;11.65;10.30;;;;;;;;;;5092907;28;20473;-78
2022/04/27 14:08:28;;;;;;;13.35;12.02;;;;;;;;;;5091488;28;20028;-78
2022/04/27 14:10:56;;;;;;;13.38;10.38;;;;;;;;;;5091517;28;20034;-77
2022/04/27 14:13:24;;;;;;;12.75;10.20;;;;;;;;;;5092888;28;20435;-78
2022/04/27 14:18:36;;;;;;;11.95;10.65;;;;;;;;;;5093104;28;20515;-78
2022/04/27 14:21:06;;;;;;;13.07;11.15;;;;;;;;;;5091448;28;20020;-79
2022/04/27 14:23:33;;;;;;;13.57;11.48;;;;;;;;;;5092854;28;20051;-78
2022/04/27 14:26:00;;;;;;;12.98;11.68;;;;;;;;;;5092733;28;20094;-78
2022/04/27 14:28:27;;;;;;;12.48;11.35;;;;;;;;;;5092768;28;20027;-79
2022/04/27 14:30:55;;;;;;;12.35;11.15;;;;;;;;;;5092738;28;20534;-79
2022/04/27 14:33:22;;;;;;;13.35;11.95;;;;;;;;;;5093136;28;20025;-78
2022/04/27 14:35:49;;;;;;;12.60;11.40;;;;;;;;;;5095500;28;20031;-78
2022/04/27 14:38:16;;;;;;;11.88;10.70;;;;;;;;;;5096722;28;20393;-78
2022/04/27 14:40:44;;;;;;;12.90;11.15;;;;;;;;;;5096656;28;20020;-78
2022/04/27 14:43:12;;;;;;;12.20;10.98;;;;;;;;;;5096628;28;20099;-78
2022/04/27 14:45:39;;;;;;;12.10;10.88;;;;;;;;;;5095215;28;20039;-77
2022/04/27 14:48:07;;;;;;;13.05;11.35;;;;;;;;;;5096354;28;20052;-77
2022/04/27 14:50:35;;;;;;;12.52;11.32;;;;;;;;;;5095159;28;20024;-77
2022/04/27 14:53:06;;;;;;;12.68;11.20;;;;;;;;;;5095186;28;20024;-78
2022/04/27 14:55:32;;;;;;;;;;;;;;;;;;5095473;28;20024;-78
2022/04/27 14:58:00;;;;;;;13.18;11.80;;;;;;;;;;5095111;28;19911;-78
2022/04/27 15:00:27;;;;;;;15.55;12.55;;;;;;;;;;5096317;28;20385;-78